Time;durP1;ratioP1;P1;durP2;ratioP2;P2;SDS_P1;SDS_P2;PMS_P1;PMS_P2;Temp;Humidity;BMP_temperature;BMP_pressure;BME280_temperature;BME280_humidity;BME280_pressure;Samples;Min_cycle;Max_cycle;Signal;HPM_P1;HPM_P2
2022/12/08 00:02:01;;;;;;;32.42;19.42;;;7.40;99.90;;;;;;5018625;28;20044;-87
2022/12/08 00:04:28;;;;;;;30.17;19.98;;;7.40;99.90;;;;;;5029477;28;20045;-87
2022/12/08 00:09:42;;;;;;;32.97;20.52;;;7.40;99.90;;;;;;5030421;28;20041;-87
2022/12/08 00:12:10;;;;;;;33.22;21.38;;;7.40;99.90;;;;;;5028957;28;20033;-88
2022/12/08 00:14:39;;;;;;;34.20;22.58;;;7.40;99.90;;;;;;5029036;28;20049;-87
2022/12/08 00:17:06;;;;;;;33.90;21.25;;;7.40;99.90;;;;;;5029556;28;20117;-87
2022/12/08 00:19:33;;;;;;;32.33;21.63;;;7.40;99.90;;;;;;5029262;28;20502;-88
2022/12/08 00:22:01;;;;;;;36.10;22.27;;;7.40;99.90;;;;;;5031111;28;20044;-87
2022/12/08 00:24:31;;;;;;;32.75;21.50;;;7.40;99.90;;;;;;5028490;28;20041;-87
2022/12/08 00:26:59;;;;;;;30.65;20.33;;;7.40;99.90;;;;;;5029370;28;20418;-87
2022/12/08 00:29:26;;;;;;;30.40;19.42;;;7.40;99.90;;;;;;5011414;28;20136;-88
2022/12/08 00:31:53;;;;;;;33.13;21.27;;;7.40;99.90;;;;;;5028879;28;20048;-87
2022/12/08 00:34:20;;;;;;;33.35;20.80;;;7.40;99.90;;;;;;5027021;28;20106;-87
2022/12/08 00:36:47;;;;;;;33.60;20.48;;;7.40;99.90;;;;;;5028123;28;20041;-88
2022/12/08 00:39:15;;;;;;;34.05;20.55;;;7.40;99.90;;;;;;5026665;28;20123;-88
2022/12/08 00:44:28;;;;;;;27.92;19.38;;;7.40;99.90;;;;;;5028533;28;20052;-87
2022/12/08 00:46:55;;;;;;;35.13;20.58;;;7.40;99.90;;;;;;5034176;28;20042;-87
2022/12/08 00:49:22;;;;;;;29.52;20.25;;;7.40;99.90;;;;;;5034456;28;20424;-87
2022/12/08 00:51:51;;;;;;;29.83;19.92;;;7.40;99.90;;;;;;5032012;28;20041;-87
2022/12/08 00:54:19;;;;;;;28.38;19.92;;;7.40;99.90;;;;;;5028043;28;20038;-88
2022/12/08 00:56:46;;;;;;;33.53;19.95;;;7.40;99.90;;;;;;5028705;28;20110;-87
2022/12/08 00:59:13;;;;;;;32.05;19.75;;;7.40;99.90;;;;;;5032708;28;20120;-87
2022/12/08 01:01:41;;;;;;;29.08;19.52;;;7.40;99.90;;;;;;5043069;28;20035;-88
2022/12/08 01:04:10;;;;;;;27.83;18.80;;;7.40;99.90;;;;;;5023950;28;20046;-88
2022/12/08 01:06:38;;;;;;;28.98;19.27;;;7.40;99.90;;;;;;5036484;28;20072;-88
2022/12/08 01:09:06;;;;;;;28.38;19.05;;;7.40;99.90;;;;;;5040862;28;20049;-88
2022/12/08 01:11:45;;;;;;;29.88;18.95;;;7.30;99.90;;;;;;5042333;28;20033;-87
2022/12/08 01:14:13;;;;;;;29.92;19.08;;;7.40;99.90;;;;;;5016578;28;20041;-87
2022/12/08 01:16:41;;;;;;;30.35;18.98;;;7.40;99.90;;;;;;5035062;28;20398;-87
2022/12/08 01:19:09;;;;;;;32.67;19.15;;;7.40;99.90;;;;;;5010769;28;20084;-87
2022/12/08 01:21:36;;;;;;;28.23;19.42;;;7.40;99.90;;;;;;5012290;28;20052;-89
2022/12/08 01:24:04;;;;;;;29.35;18.75;;;7.40;99.90;;;;;;5021716;28;20038;-87
2022/12/08 01:26:31;;;;;;;30.38;19.42;;;7.40;99.90;;;;;;5028584;28;20051;-87
2022/12/08 01:28:58;;;;;;;31.00;19.08;;;7.30;99.90;;;;;;5028695;28;20054;-87
2022/12/08 01:31:24;;;;;;;29.90;20.00;;;7.40;99.90;;;;;;5028974;28;20037;-87
2022/12/08 01:33:53;;;;;;;30.25;19.50;;;7.30;99.90;;;;;;5026754;28;20049;-88
2022/12/08 01:36:23;;;;;;;29.08;19.15;;;7.30;99.90;;;;;;5013758;28;20060;-88
2022/12/08 01:38:51;;;;;;;30.90;20.10;;;7.30;99.90;;;;;;5028575;28;20140;-87
2022/12/08 01:41:20;;;;;;;30.80;20.70;;;7.30;99.90;;;;;;5010420;28;20052;-88
2022/12/08 01:43:56;;;;;;;30.42;20.67;;;7.20;99.90;;;;;;5027784;28;20052;-87
2022/12/08 01:46:23;;;;;;;31.65;21.52;;;7.30;99.90;;;;;;5027732;28;20211;-87
2022/12/08 01:48:54;;;;;;;33.42;21.00;;;7.30;99.90;;;;;;5029731;28;20121;-88
2022/12/08 01:51:21;;;;;;;30.03;20.83;;;7.20;99.90;;;;;;5027990;23;20050;-85
2022/12/08 01:53:51;;;;;;;30.38;21.38;;;7.30;99.90;;;;;;5007364;28;20300;-85
2022/12/08 01:56:23;;;;;;;32.72;22.42;;;7.30;99.90;;;;;;5008702;28;20569;-85
2022/12/08 01:58:52;;;;;;;35.38;22.25;;;7.30;99.90;;;;;;5011814;28;20092;-86
2022/12/08 02:01:19;;;;;;;39.58;22.55;;;7.30;99.90;;;;;;5012221;28;20038;-85
2022/12/08 02:03:50;;;;;;;37.00;23.33;;;7.30;99.90;;;;;;5011875;28;20516;-85
2022/12/08 02:06:22;;;;;;;34.78;23.77;;;7.30;99.90;;;;;;5011289;28;20590;-85
2022/12/08 02:08:49;;;;;;;39.30;24.85;;;7.30;99.90;;;;;;5012821;28;20050;-85
2022/12/08 02:11:16;;;;;;;37.17;24.63;;;7.30;99.90;;;;;;5010680;28;20037;-85
2022/12/08 02:13:47;;;;;;;33.95;22.90;;;7.40;99.90;;;;;;5011353;28;20053;-85
2022/12/08 02:16:27;;;;;;;35.35;22.95;;;7.30;99.90;;;;;;5012137;28;20053;-85
2022/12/08 02:19:27;;;;;;;38.10;25.23;;;7.40;99.90;;;;;;5012747;28;20060;-85
2022/12/08 02:21:59;;;;;;;39.20;24.60;;;7.40;99.90;;;;;;5009263;28;20084;-85
2022/12/08 02:24:34;;;;;;;40.03;24.20;;;7.40;99.90;;;;;;5009683;28;20045;-85
2022/12/08 02:27:25;;;;;;;39.88;24.83;;;7.40;99.90;;;;;;5011947;28;20046;-85
2022/12/08 02:30:09;;;;;;;37.63;23.50;;;7.40;99.90;;;;;;5010859;28;20037;-85
2022/12/08 02:32:55;;;;;;;36.95;23.63;;;7.40;99.90;;;;;;5009305;28;20116;-85
2022/12/08 02:38:48;;;;;;;39.97;23.73;;;7.40;99.90;;;;;;5012496;28;20532;-85
2022/12/08 02:41:34;;;;;;;39.40;23.77;;;7.40;99.90;;;;;;5003436;28;20109;-85
2022/12/08 02:44:06;;;;;;;40.13;23.30;;;7.40;99.90;;;;;;5010129;28;20100;-85
2022/12/08 02:46:38;;;;;;;39.33;23.55;;;7.40;99.90;;;;;;5011943;28;20048;-85
2022/12/08 02:49:05;;;;;;;41.30;25.30;;;7.40;99.90;;;;;;5011616;28;20037;-85
2022/12/08 02:51:34;;;;;;;41.28;24.95;;;7.40;99.90;;;;;;5011186;28;20037;-85
2022/12/08 02:54:04;;;;;;;41.38;25.40;;;7.40;99.90;;;;;;5009766;28;20041;-85
2022/12/08 02:56:53;;;;;;;41.08;25.17;;;7.40;99.90;;;;;;5008257;28;20038;-85
2022/12/08 02:59:33;;;;;;;45.47;25.48;;;7.40;99.90;;;;;;5010655;28;20042;-85
2022/12/08 03:02:13;;;;;;;42.28;26.27;;;7.40;99.90;;;;;;5009355;28;20046;-85
2022/12/08 03:04:45;;;;;;;43.47;25.55;;;7.50;99.90;;;;;;5011182;28;20046;-85
2022/12/08 03:07:21;;;;;;;43.13;25.77;;;7.50;99.90;;;;;;5011654;28;20525;-85
2022/12/08 03:09:52;;;;;;;45.25;24.88;;;7.50;99.90;;;;;;4993355;28;20049;-85
2022/12/08 03:12:21;;;;;;;;;;;7.50;99.90;;;;;;5009364;28;20653;-85
2022/12/08 03:14:51;;;;;;;41.88;24.75;;;7.50;99.90;;;;;;5021447;28;19991;-85
2022/12/08 03:17:28;;;;;;;43.95;25.52;;;7.50;99.90;;;;;;5010618;28;20042;-85
2022/12/08 03:19:57;;;;;;;40.50;24.05;;;7.50;99.90;;;;;;5011015;28;20038;-84
2022/12/08 03:22:30;;;;;;;43.20;23.88;;;7.50;99.90;;;;;;5008816;28;20034;-86
2022/12/08 03:24:58;;;;;;;42.13;24.73;;;7.50;99.90;;;;;;5010475;28;20488;-85
2022/12/08 03:27:29;;;;;;;37.78;23.58;;;7.50;99.90;;;;;;5011386;28;20414;-86
2022/12/08 03:29:58;;;;;;;42.08;24.50;;;7.50;99.90;;;;;;5008421;28;20044;-85
2022/12/08 03:32:37;;;;;;;42.42;23.42;;;7.50;99.90;;;;;;5034623;28;20502;-86
2022/12/08 03:35:08;;;;;;;44.35;24.20;;;7.50;99.90;;;;;;5001854;28;20073;-85
2022/12/08 03:37:37;;;;;;;40.10;22.40;;;7.50;99.90;;;;;;5010862;28;20038;-85
2022/12/08 03:40:04;;;;;;;42.58;22.35;;;7.50;99.90;;;;;;5010938;28;20071;-85
2022/12/08 03:42:31;;;;;;;38.38;22.20;;;7.60;99.90;;;;;;5009709;28;20053;-85
2022/12/08 03:44:58;;;;;;;36.90;22.95;;;7.50;99.90;;;;;;5009282;28;20049;-86
2022/12/08 03:47:25;;;;;;;40.50;23.67;;;7.50;99.90;;;;;;5006741;28;20052;-85
2022/12/08 03:49:52;;;;;;;38.42;22.83;;;7.50;99.90;;;;;;4991878;28;20481;-85
2022/12/08 03:52:19;;;;;;;36.92;22.10;;;7.50;99.90;;;;;;5010398;28;20048;-86
2022/12/08 03:54:47;;;;;;;34.65;20.92;;;7.60;99.90;;;;;;5009249;28;20064;-85
2022/12/08 03:57:14;;;;;;;30.67;19.95;;;7.60;99.90;;;;;;5004139;28;20053;-85
2022/12/08 03:59:41;;;;;;;35.28;21.30;;;7.60;99.90;;;;;;4992679;28;20399;-85
2022/12/08 04:02:08;;;;;;;30.90;19.88;;;7.60;99.90;;;;;;5009303;28;20042;-86
2022/12/08 04:04:35;;;;;;;32.08;19.13;;;7.50;99.90;;;;;;5006445;28;20839;-85
2022/12/08 04:07:02;;;;;;;33.33;19.77;;;7.60;99.90;;;;;;5009596;28;20057;-85
2022/12/08 04:09:29;;;;;;;30.27;19.27;;;7.50;99.90;;;;;;5009938;28;20038;-85
2022/12/08 04:11:57;;;;;;;33.38;20.35;;;7.60;99.90;;;;;;5009196;28;20075;-86
2022/12/08 04:14:24;;;;;;;34.58;20.60;;;7.60;99.90;;;;;;5009000;28;20044;-85
2022/12/08 04:16:51;;;;;;;32.63;20.05;;;7.60;99.90;;;;;;5010106;28;20046;-85
2022/12/08 04:19:18;;;;;;;31.45;19.10;;;7.60;99.90;;;;;;4990464;28;20517;-85
2022/12/08 04:21:45;;;;;;;28.27;18.95;;;7.60;99.90;;;;;;5013830;28;21546;-85
2022/12/08 04:24:12;;;;;;;28.25;18.80;;;7.60;99.90;;;;;;5008312;28;20047;-85
2022/12/08 04:26:39;;;;;;;30.50;18.98;;;7.60;99.90;;;;;;5010062;28;20042;-85
2022/12/08 04:29:07;;;;;;;30.30;19.55;;;7.60;99.90;;;;;;5007296;28;20045;-85
2022/12/08 04:31:34;;;;;;;32.63;18.95;;;7.60;99.90;;;;;;5009653;28;20038;-85
2022/12/08 04:34:01;;;;;;;31.77;18.92;;;7.60;99.90;;;;;;5008706;28;20462;-86
2022/12/08 04:36:28;;;;;;;31.23;18.80;;;7.60;99.90;;;;;;5001314;28;20042;-86
2022/12/08 04:38:56;;;;;;;29.17;18.50;;;7.60;99.90;;;;;;5011796;28;20093;-87
2022/12/08 04:41:23;;;;;;;29.02;17.95;;;7.60;99.90;;;;;;4973295;28;20046;-86
2022/12/08 04:43:52;;;;;;;28.33;17.67;;;7.60;99.90;;;;;;4991707;28;20053;-86
2022/12/08 04:46:20;;;;;;;25.00;16.38;;;7.60;99.90;;;;;;5009462;28;20378;-86
2022/12/08 04:48:47;;;;;;;28.35;16.75;;;7.60;99.90;;;;;;5009549;28;20489;-85
2022/12/08 04:51:16;;;;;;;25.67;15.63;;;7.50;99.90;;;;;;5009951;28;20050;-86
2022/12/08 04:53:43;;;;;;;26.38;16.35;;;7.50;99.90;;;;;;5002470;28;20135;-85
2022/12/08 04:56:12;;;;;;;27.90;16.73;;;7.50;99.90;;;;;;5016350;28;20083;-85
2022/12/08 04:58:39;;;;;;;24.85;15.23;;;7.60;99.90;;;;;;5009805;28;20045;-86
2022/12/08 05:01:06;;;;;;;30.02;16.13;;;7.50;99.90;;;;;;5009577;28;20049;-86
2022/12/08 05:03:34;;;;;;;23.45;15.35;;;7.50;99.90;;;;;;5006558;28;20034;-85
2022/12/08 05:06:01;;;;;;;23.13;15.07;;;7.50;99.90;;;;;;5008186;28;20052;-86
2022/12/08 05:08:29;;;;;;;24.00;15.30;;;7.50;99.90;;;;;;5009859;28;20049;-85
2022/12/08 05:11:02;;;;;;;27.40;16.83;;;7.50;99.90;;;;;;5005149;28;20046;-88
2022/12/08 05:13:29;;;;;;;23.77;15.65;;;7.50;99.90;;;;;;5019174;28;20045;-83
2022/12/08 05:16:03;;;;;;;25.13;15.80;;;7.50;99.90;;;;;;5009758;28;20046;-85
2022/12/08 05:18:29;;;;;;;26.60;16.67;;;7.60;99.90;;;;;;5009409;28;20129;-84
2022/12/08 05:20:58;;;;;;;25.05;16.77;;;7.60;99.90;;;;;;5008401;28;20418;-82
2022/12/08 05:23:25;;;;;;;28.02;17.25;;;7.50;99.90;;;;;;5008217;28;20038;-82
2022/12/08 05:25:52;;;;;;;26.95;17.45;;;7.50;99.90;;;;;;5008409;28;20061;-84
2022/12/08 05:28:18;;;;;;;29.08;17.77;;;7.60;99.90;;;;;;5006069;28;20053;-83
2022/12/08 05:30:45;;;;;;;24.92;17.00;;;7.50;99.90;;;;;;5009171;28;20037;-84
2022/12/08 05:33:12;;;;;;;29.35;17.95;;;7.60;99.90;;;;;;5008496;28;20042;-83
2022/12/08 05:35:40;;;;;;;26.38;17.80;;;7.60;99.90;;;;;;5009796;28;20049;-83
2022/12/08 05:38:09;;;;;;;27.90;18.40;;;7.50;99.90;;;;;;5011088;28;20180;-83
2022/12/08 05:40:37;;;;;;;28.42;18.50;;;7.50;99.90;;;;;;5013580;28;20060;-84
2022/12/08 05:43:05;;;;;;;30.42;18.35;;;7.60;99.90;;;;;;5011942;28;20042;-82
2022/12/08 05:45:31;;;;;;;29.65;18.55;;;7.60;99.90;;;;;;5010745;28;20049;-84
2022/12/08 05:48:00;;;;;;;25.80;16.67;;;7.50;99.90;;;;;;5007455;28;20060;-84
2022/12/08 05:50:36;;;;;;;25.80;18.13;;;7.60;99.90;;;;;;5009614;28;20038;-83
2022/12/08 05:53:04;;;;;;;28.58;17.77;;;7.50;99.90;;;;;;5012052;28;20065;-82
2022/12/08 05:55:33;;;;;;;28.33;16.42;;;7.50;99.90;;;;;;5013163;28;20081;-83
2022/12/08 05:58:00;;;;;;;25.92;16.35;;;7.60;99.90;;;;;;5012407;28;20034;-83
2022/12/08 06:00:26;;;;;;;25.60;17.25;;;7.50;99.90;;;;;;5012362;28;20048;-82
2022/12/08 06:02:53;;;;;;;25.55;15.98;;;7.50;99.90;;;;;;5008512;28;20482;-82
2022/12/08 06:05:20;;;;;;;23.67;15.38;;;7.60;99.90;;;;;;5010840;28;20056;-84
2022/12/08 06:07:47;;;;;;;23.00;15.20;;;7.50;99.90;;;;;;5010849;28;20056;-83
2022/12/08 06:10:14;;;;;;;28.02;16.27;;;7.60;99.90;;;;;;4997799;28;20099;-84
2022/12/08 06:12:42;;;;;;;27.23;18.08;;;7.60;99.90;;;;;;5011721;28;20045;-82
2022/12/08 06:15:10;;;;;;;23.90;15.70;;;7.60;99.90;;;;;;5012279;28;20046;-85
2022/12/08 06:17:37;;;;;;;24.48;15.82;;;7.60;99.90;;;;;;5012428;28;20490;-82
2022/12/08 06:20:05;;;;;;;24.88;16.13;;;7.60;99.90;;;;;;5004169;28;20124;-88
2022/12/08 06:22:35;;;;;;;23.63;15.57;;;7.60;99.90;;;;;;5002025;28;20429;-88
2022/12/08 06:25:02;;;;;;;24.60;16.35;;;7.50;99.90;;;;;;4994574;28;20049;-85
2022/12/08 06:27:29;;;;;;;23.25;15.82;;;7.50;99.90;;;;;;4991446;28;20146;-87
2022/12/08 06:29:57;;;;;;;24.20;15.57;;;7.50;99.90;;;;;;5010393;28;20048;-87
2022/12/08 06:32:24;;;;;;;26.38;15.30;;;7.50;99.90;;;;;;5003711;28;20052;-88
2022/12/08 06:34:51;;;;;;;25.17;16.13;;;7.50;99.90;;;;;;5006126;28;20111;-82
2022/12/08 06:37:18;;;;;;;23.73;15.15;;;7.60;99.90;;;;;;4992663;28;20059;-88
2022/12/08 06:39:46;;;;;;;27.08;16.98;;;7.60;99.90;;;;;;5004192;28;20053;-89
2022/12/08 06:44:58;;;;;;;26.80;16.38;;;7.60;99.90;;;;;;5010255;28;20046;-89
2022/12/08 06:47:25;;;;;;;24.15;15.60;;;7.60;99.90;;;;;;4992596;28;20054;-88
2022/12/08 06:49:52;;;;;;;24.70;15.57;;;7.50;99.90;;;;;;5009935;28;20057;-88
2022/12/08 06:52:19;;;;;;;25.70;15.68;;;7.60;99.90;;;;;;5010505;28;20038;-88
2022/12/08 06:54:46;;;;;;;27.23;17.30;;;7.50;99.90;;;;;;5010641;28;20038;-88
2022/12/08 06:57:13;;;;;;;27.83;16.92;;;7.50;99.90;;;;;;5012437;28;20055;-88
2022/12/08 06:59:40;;;;;;;26.30;16.35;;;7.50;99.90;;;;;;5001822;28;20136;-89
2022/12/08 07:02:08;;;;;;;25.85;15.32;;;7.50;99.90;;;;;;4994774;28;20221;-90
2022/12/08 07:04:35;;;;;;;30.63;15.95;;;7.50;99.90;;;;;;4998993;28;20521;-88
2022/12/08 07:07:02;;;;;;;24.70;15.35;;;7.50;99.90;;;;;;5006706;28;20060;-88
2022/12/08 07:09:29;;;;;;;24.75;15.77;;;7.50;99.90;;;;;;5007751;28;20044;-87
2022/12/08 07:11:56;;;;;;;27.80;17.02;;;7.50;99.90;;;;;;5010658;28;20483;-88
2022/12/08 07:14:23;;;;;;;25.25;15.90;;;7.60;99.90;;;;;;5011430;28;20130;-88
2022/12/08 07:16:50;;;;;;;24.38;14.98;;;7.60;99.90;;;;;;5008591;28;20050;-88
2022/12/08 07:19:19;;;;;;;26.83;16.30;;;7.60;99.90;;;;;;4993691;28;20052;-86
2022/12/08 07:21:46;;;;;;;26.67;14.45;;;7.50;99.90;;;;;;4994025;28;20038;-88
2022/12/08 07:24:13;;;;;;;25.65;15.65;;;7.50;99.90;;;;;;4993601;28;20086;-88
2022/12/08 07:26:40;;;;;;;26.33;15.50;;;7.50;99.90;;;;;;5010173;28;20419;-88
2022/12/08 07:29:07;;;;;;;26.38;15.52;;;7.50;99.90;;;;;;5009924;28;20053;-88
2022/12/08 07:31:35;;;;;;;24.40;15.75;;;7.50;99.90;;;;;;5008545;28;20050;-88
2022/12/08 07:34:02;;;;;;;25.98;16.60;;;7.50;99.90;;;;;;5007636;28;20044;-88
2022/12/08 07:36:31;;;;;;;22.75;14.68;;;7.50;99.90;;;;;;5006748;28;20131;-87
2022/12/08 07:38:58;;;;;;;22.67;14.82;;;7.50;99.90;;;;;;5007892;28;20061;-86
2022/12/08 07:41:26;;;;;;;23.02;14.70;;;7.50;99.90;;;;;;5006379;28;20492;-87
2022/12/08 07:43:53;;;;;;;28.08;15.85;;;7.50;99.90;;;;;;5009851;28;20042;-87
2022/12/08 07:46:27;;;;;;;24.00;14.43;;;7.50;99.90;;;;;;5007998;28;20072;-88
2022/12/08 07:48:55;;;;;;;24.83;13.82;;;7.50;99.90;;;;;;4989183;28;20045;-91
2022/12/08 07:51:23;;;;;;;24.25;14.30;;;7.50;99.90;;;;;;5007258;28;20046;-88
2022/12/08 07:53:53;;;;;;;23.73;13.85;;;7.50;99.90;;;;;;5002590;28;20509;-88
2022/12/08 07:56:21;;;;;;;22.95;13.93;;;7.50;99.90;;;;;;4989490;28;20566;-88
2022/12/08 07:58:48;;;;;;;20.90;13.13;;;7.50;99.90;;;;;;4994174;28;20502;-88
2022/12/08 08:01:26;;;;;;;19.25;12.73;;;7.50;99.90;;;;;;4987743;28;20136;-88
2022/12/08 08:03:54;;;;;;;18.65;12.88;;;7.50;99.90;;;;;;5007731;28;20131;-90
2022/12/08 08:06:21;;;;;;;19.00;12.25;;;7.50;99.90;;;;;;5007102;28;20144;-88
2022/12/08 08:08:48;;;;;;;20.42;12.57;;;7.50;99.90;;;;;;5005045;28;20133;-88
2022/12/08 08:11:16;;;;;;;18.63;12.10;;;7.50;99.90;;;;;;5022008;23;20069;-85
2022/12/08 08:13:43;;;;;;;19.25;13.05;;;7.50;99.90;;;;;;5007545;28;20050;-85
2022/12/08 08:16:12;;;;;;;22.05;13.05;;;7.50;99.90;;;;;;5010294;28;20120;-84
2022/12/08 08:18:39;;;;;;;20.33;13.25;;;7.50;99.90;;;;;;5005229;28;20132;-84
2022/12/08 08:21:06;;;;;;;19.17;13.35;;;7.50;99.90;;;;;;5008959;28;20098;-85
2022/12/08 08:23:35;;;;;;;21.00;13.68;;;7.50;99.90;;;;;;5024394;28;20034;-84
2022/12/08 08:26:04;;;;;;;19.38;12.02;;;7.50;99.90;;;;;;5015479;28;20042;-85
2022/12/08 08:28:34;;;;;;;18.23;12.27;;;7.50;99.90;;;;;;5040517;28;20143;-85
2022/12/08 08:31:02;;;;;;;18.08;11.63;;;7.50;99.90;;;;;;5035811;28;20046;-85
2022/12/08 08:33:29;;;;;;;20.13;13.05;;;7.40;99.90;;;;;;5013296;28;20138;-84
2022/12/08 08:35:56;;;;;;;21.60;14.00;;;7.40;99.90;;;;;;4995534;28;20137;-85
2022/12/08 08:38:23;;;;;;;20.73;13.52;;;7.40;99.90;;;;;;5012481;28;20069;-85
2022/12/08 08:40:50;;;;;;;20.80;13.73;;;7.40;99.90;;;;;;5012898;28;20092;-88
2022/12/08 08:43:28;;;;;;;23.73;14.65;;;7.40;99.90;;;;;;5008716;28;20504;-90
2022/12/08 08:45:58;;;;;;;23.45;13.93;;;7.50;99.90;;;;;;5022400;28;20134;-89
2022/12/08 08:48:25;;;;;;;23.15;13.48;;;7.40;99.90;;;;;;5009442;28;20041;-89
2022/12/08 08:50:52;;;;;;;20.42;13.35;;;7.60;99.90;;;;;;5010868;28;20078;-88
2022/12/08 08:53:20;;;;;;;19.63;13.32;;;7.40;99.90;;;;;;5009947;28;20124;-87
2022/12/08 08:55:47;;;;;;;20.98;14.38;;;7.40;99.90;;;;;;5008876;28;20050;-86
2022/12/08 08:58:14;;;;;;;21.08;13.55;;;7.40;99.90;;;;;;5007716;28;20041;-89
2022/12/08 09:00:41;;;;;;;21.50;14.32;;;7.40;99.90;;;;;;5009340;28;20148;-88
2022/12/08 09:03:09;;;;;;;23.25;14.30;;;7.40;99.90;;;;;;5008447;28;20038;-83
2022/12/08 09:05:38;;;;;;;21.85;14.13;;;7.40;99.90;;;;;;5003035;28;20128;-85
2022/12/08 09:08:05;;;;;;;19.85;13.55;;;7.40;99.90;;;;;;5008562;28;20046;-85
2022/12/08 09:10:32;;;;;;;20.70;13.82;;;7.40;99.90;;;;;;5010950;28;20064;-85
2022/12/08 09:12:59;;;;;;;23.58;13.75;;;7.40;99.90;;;;;;5011277;28;20049;-85
2022/12/08 09:15:26;;;;;;;20.70;13.30;;;7.40;99.90;;;;;;5005667;28;20038;-84
2022/12/08 09:17:52;;;;;;;23.13;13.35;;;7.40;99.90;;;;;;5013114;28;20125;-85
2022/12/08 09:20:21;;;;;;;20.17;12.63;;;7.40;99.90;;;;;;5006825;28;20037;-85
2022/12/08 09:22:48;;;;;;;21.08;13.20;;;7.40;99.90;;;;;;5008542;28;20049;-85
2022/12/08 09:25:15;;;;;;;21.52;15.02;;;7.40;99.90;;;;;;5005473;28;20041;-85
2022/12/08 09:27:42;;;;;;;23.35;15.98;;;7.40;99.90;;;;;;5004979;28;20104;-84
2022/12/08 09:30:09;;;;;;;24.27;15.73;;;7.40;99.90;;;;;;5016785;28;20104;-84
2022/12/08 09:32:36;;;;;;;23.05;15.65;;;7.40;99.90;;;;;;5009694;28;20088;-83
2022/12/08 09:35:04;;;;;;;23.65;15.68;;;7.40;99.90;;;;;;5015042;28;20053;-84
2022/12/08 09:37:33;;;;;;;24.95;15.57;;;7.40;99.90;;;;;;5010416;28;20033;-84
2022/12/08 09:39:59;;;;;;;26.73;15.45;;;7.40;99.90;;;;;;4992188;28;20132;-84
2022/12/08 09:42:38;;;;;;;25.50;16.42;;;7.40;99.90;;;;;;5026239;28;20049;-84
2022/12/08 09:45:08;;;;;;;25.27;16.75;;;7.40;99.90;;;;;;5011330;28;20103;-84
2022/12/08 09:47:40;;;;;;;22.98;15.73;;;7.40;99.90;;;;;;5010934;28;20050;-84
2022/12/08 09:50:12;;;;;;;26.42;16.23;;;7.40;99.90;;;;;;5013619;28;20050;-84
2022/12/08 09:52:44;;;;;;;27.33;16.13;;;7.40;99.90;;;;;;5013060;28;20076;-84
2022/12/08 09:55:19;;;;;;;27.92;17.15;;;7.40;99.90;;;;;;5014458;28;20066;-84
2022/12/08 09:57:57;;;;;;;24.85;17.05;;;7.40;99.90;;;;;;5012274;28;20038;-84
2022/12/08 10:00:24;;;;;;;30.40;18.00;;;7.40;99.90;;;;;;5007804;28;20045;-85
2022/12/08 10:02:51;;;;;;;27.13;17.48;;;7.40;99.90;;;;;;5008690;28;20041;-84
2022/12/08 10:05:18;;;;;;;29.15;17.55;;;7.40;99.90;;;;;;5003913;28;20073;-85
2022/12/08 10:07:49;;;;;;;29.90;18.08;;;7.40;99.90;;;;;;5006953;28;20050;-85
2022/12/08 10:10:26;;;;;;;26.77;16.60;;;7.50;99.90;;;;;;5015300;28;20065;-84
2022/12/08 10:12:57;;;;;;;24.60;15.48;;;7.40;99.90;;;;;;5009409;28;20105;-84
2022/12/08 10:15:38;;;;;;;24.88;16.23;;;7.40;99.90;;;;;;5017764;28;20111;-85
2022/12/08 10:18:12;;;;;;;26.20;15.68;;;7.40;99.90;;;;;;5007623;28;20049;-85
2022/12/08 10:20:41;;;;;;;29.27;16.80;;;7.40;99.90;;;;;;5016078;28;20041;-84
2022/12/08 10:23:18;;;;;;;23.30;15.80;;;7.40;99.90;;;;;;5015468;28;20117;-85
2022/12/08 10:25:47;;;;;;;25.15;15.50;;;7.40;99.90;;;;;;5019971;28;20100;-84
2022/12/08 10:28:14;;;;;;;24.55;15.77;;;7.40;99.90;;;;;;5015477;28;20049;-86
2022/12/08 10:30:41;;;;;;;26.42;17.13;;;7.40;99.90;;;;;;5017929;28;20038;-85
2022/12/08 10:33:14;;;;;;;24.58;15.73;;;7.40;99.90;;;;;;5020592;28;20042;-84
2022/12/08 10:35:44;;;;;;;25.38;15.43;;;7.50;99.90;;;;;;5013529;28;20120;-85
2022/12/08 10:38:20;;;;;;;24.73;15.57;;;7.50;99.90;;;;;;5010235;28;20077;-85
2022/12/08 10:40:47;;;;;;;21.95;14.38;;;7.50;99.90;;;;;;4999879;28;20049;-85
2022/12/08 10:43:15;;;;;;;23.50;15.95;;;7.40;99.90;;;;;;5022589;28;20124;-85
2022/12/08 10:45:43;;;;;;;21.58;15.40;;;7.40;99.90;;;;;;5016900;28;20049;-85
2022/12/08 10:48:15;;;;;;;21.48;14.07;;;7.40;99.90;;;;;;4994584;28;20430;-85
2022/12/08 10:50:44;;;;;;;22.85;14.52;;;7.40;99.90;;;;;;5011454;28;20053;-86
2022/12/08 10:53:14;;;;;;;20.45;14.38;;;7.40;99.90;;;;;;4984572;28;20428;-85
2022/12/08 10:55:44;;;;;;;22.25;14.75;;;7.40;99.90;;;;;;5016407;28;20517;-85
2022/12/08 10:58:28;;;;;;;22.25;15.23;;;7.40;99.90;;;;;;5013613;28;20065;-85
2022/12/08 11:00:57;;;;;;;23.33;16.00;;;7.40;99.90;;;;;;5010682;28;20057;-85
2022/12/08 11:03:28;;;;;;;24.48;16.27;;;7.40;99.90;;;;;;5014960;28;20113;-86
2022/12/08 11:06:00;;;;;;;24.02;15.38;;;7.40;99.90;;;;;;5009076;28;20124;-86
2022/12/08 11:08:28;;;;;;;24.17;16.13;;;7.40;99.90;;;;;;5007783;28;20046;-84
2022/12/08 11:10:59;;;;;;;24.33;17.48;;;7.40;99.90;;;;;;5022477;28;20041;-84
2022/12/08 11:13:28;;;;;;;28.63;18.05;;;7.40;99.90;;;;;;5011463;28;20069;-84
2022/12/08 11:15:56;;;;;;;29.23;18.23;;;7.40;99.90;;;;;;5011884;28;20057;-86
2022/12/08 11:18:28;;;;;;;31.33;18.75;;;7.40;99.90;;;;;;5010361;28;20042;-86
2022/12/08 11:21:02;;;;;;;30.65;19.08;;;7.50;99.90;;;;;;5018009;28;20054;-84
2022/12/08 11:23:30;;;;;;;26.88;18.45;;;7.50;99.90;;;;;;5014312;28;20050;-84
2022/12/08 11:26:03;;;;;;;32.13;20.33;;;7.50;99.90;;;;;;5021395;28;20049;-84
2022/12/08 11:28:30;;;;;;;30.13;20.10;;;7.50;99.90;;;;;;5009403;28;20057;-88
2022/12/08 11:31:04;;;;;;;35.83;20.10;;;7.50;99.90;;;;;;5013446;28;20051;-88
2022/12/08 11:33:34;;;;;;;36.60;21.58;;;7.50;99.90;;;;;;5012765;28;20136;-88
2022/12/08 11:36:04;;;;;;;32.05;20.98;;;7.50;99.90;;;;;;5010956;28;20141;-88
2022/12/08 11:38:34;;;;;;;33.63;21.40;;;7.50;99.90;;;;;;5017296;28;20117;-88
2022/12/08 11:41:05;;;;;;;33.97;21.23;;;7.50;99.90;;;;;;5016876;28;20046;-88
2022/12/08 11:43:41;;;;;;;36.70;22.75;;;7.50;99.90;;;;;;5017279;28;20053;-89
2022/12/08 11:46:13;;;;;;;33.55;22.08;;;7.50;99.90;;;;;;5012127;28;20402;-86
2022/12/08 11:48:45;;;;;;;33.78;20.90;;;7.60;99.90;;;;;;5015666;28;20077;-88
2022/12/08 11:51:15;;;;;;;34.10;20.80;;;7.50;99.90;;;;;;4996483;28;20100;-88
2022/12/08 11:53:44;;;;;;;32.88;20.52;;;7.50;99.90;;;;;;5013145;28;20171;-90
2022/12/08 11:56:17;;;;;;;34.03;21.15;;;7.50;99.90;;;;;;5010075;28;20045;-84
2022/12/08 11:58:49;;;;;;;36.42;19.63;;;7.80;99.90;;;;;;5010761;28;20490;-87
2022/12/08 12:01:23;;;;;;;32.97;20.10;;;7.60;99.90;;;;;;5008053;28;20056;-91
2022/12/08 12:04:02;;;;;;;27.83;17.27;;;7.50;99.90;;;;;;5017447;28;20084;-91
2022/12/08 12:06:58;;;;;;;30.75;18.73;;;7.50;99.90;;;;;;5009270;28;20052;-91
2022/12/08 12:09:33;;;;;;;34.15;17.90;;;7.50;99.90;;;;;;5005441;28;20100;-91
2022/12/08 12:12:15;;;;;;;27.80;17.02;;;7.50;99.90;;;;;;4995420;28;20057;-90
2022/12/08 12:15:07;;;;;;;28.15;17.63;;;7.50;99.90;;;;;;5006368;28;20122;-91
2022/12/08 12:17:42;;;;;;;27.75;17.10;;;7.50;99.90;;;;;;4949933;28;20665;-91
2022/12/08 12:20:13;;;;;;;26.10;16.63;;;7.50;99.90;;;;;;5012478;28;20125;-91
2022/12/08 12:22:41;;;;;;;28.15;17.80;;;7.50;99.90;;;;;;5004646;28;20103;-91
2022/12/08 12:25:17;;;;;;;24.45;16.60;;;7.50;99.90;;;;;;5008973;28;20668;-91
2022/12/08 12:27:47;;;;;;;24.92;16.35;;;7.50;99.90;;;;;;4992031;28;20050;-91
2022/12/08 12:30:23;;;;;;;25.20;16.87;;;7.50;99.90;;;;;;5010097;28;20050;-91
2022/12/08 12:32:54;;;;;;;27.85;17.25;;;7.50;99.90;;;;;;4985238;28;20307;-91
2022/12/08 12:35:44;;;;;;;26.15;17.27;;;7.50;99.90;;;;;;5009504;28;20041;-91
2022/12/08 12:41:05;;;;;;;26.08;16.63;;;7.50;99.90;;;;;;5005343;28;20084;-92
2022/12/08 12:43:35;;;;;;;23.42;16.17;;;7.50;99.90;;;;;;4998750;28;20182;-91
2022/12/08 12:46:38;;;;;;;25.45;16.83;;;7.50;99.90;;;;;;5007719;28;20137;-91
2022/12/08 12:49:48;;;;;;;23.38;15.25;;;7.40;99.90;;;;;;5019221;28;20179;-91
2022/12/08 12:52:58;;;;;;;19.67;14.37;;;7.40;99.90;;;;;;5008447;28;20048;-91
2022/12/08 12:55:50;;;;;;;25.92;15.25;;;7.40;99.90;;;;;;4992105;28;20060;-91
2022/12/08 12:58:23;;;;;;;22.48;15.63;;;7.40;99.90;;;;;;5024762;28;20536;-88
2022/12/08 13:01:30;;;;;;;23.40;15.30;;;7.40;99.90;;;;;;5022411;28;20042;-90
2022/12/08 13:04:04;;;;;;;20.67;15.10;;;7.40;99.90;;;;;;5008806;28;20053;-90
2022/12/08 13:06:35;;;;;;;25.02;15.88;;;7.40;99.90;;;;;;5007811;28;20380;-90
2022/12/08 13:09:02;;;;;;;21.90;15.05;;;7.30;99.90;;;;;;4994021;28;20509;-90